createdAt,value
2018-07-12T00:00:39.790Z,23.00
2018-07-12T00:01:40.373Z,22.96
2018-07-12T00:02:40.959Z,23.02
2018-07-12T00:03:41.545Z,23.03
2018-07-12T00:04:42.181Z,22.98
2018-07-12T00:05:42.768Z,23.06
2018-07-12T00:06:43.505Z,23.02
2018-07-12T00:07:44.141Z,22.99
2018-07-12T00:08:44.728Z,23.03
2018-07-12T00:09:45.313Z,23.03
2018-07-12T00:10:45.900Z,22.98
2018-07-12T00:11:46.488Z,22.99
2018-07-12T00:12:47.072Z,23.08
2018-07-12T00:13:47.662Z,23.05
2018-07-12T00:14:48.248Z,23.03
2018-07-12T00:15:48.833Z,23.02
2018-07-12T00:16:49.420Z,22.93
2018-07-12T00:17:50.007Z,23.00
2018-07-12T00:18:50.642Z,22.94
2018-07-12T00:19:51.280Z,23.05
2018-07-12T00:20:51.867Z,22.99
2018-07-12T00:21:52.451Z,22.94
2018-07-12T00:22:53.089Z,22.98
2018-07-12T00:23:53.726Z,22.99
2018-07-12T00:24:54.311Z,23.05
2018-07-12T00:25:54.897Z,22.96
2018-07-12T00:26:55.485Z,23.06
2018-07-12T00:27:56.123Z,22.96
2018-07-12T00:28:56.712Z,22.90
2018-07-12T00:29:57.343Z,22.93
2018-07-12T00:30:57.930Z,22.96
2018-07-12T00:31:58.516Z,22.93
2018-07-12T00:32:59.102Z,22.90
2018-07-12T00:33:59.690Z,22.90
2018-07-12T00:35:00.275Z,22.90
2018-07-12T00:36:00.861Z,22.96
2018-07-12T00:37:01.450Z,22.90
2018-07-12T00:38:02.037Z,22.96
2018-07-12T00:39:02.671Z,22.94
2018-07-12T00:40:03.260Z,22.83
2018-07-12T00:41:03.893Z,22.93
2018-07-12T00:42:04.531Z,22.85
2018-07-12T00:43:05.117Z,22.94
2018-07-12T00:44:05.703Z,22.87
2018-07-12T00:45:06.288Z,22.91
2018-07-12T00:46:06.875Z,22.94
2018-07-12T00:47:07.462Z,22.87
2018-07-12T00:48:08.046Z,22.90
2018-07-12T00:49:08.632Z,22.88
2018-07-12T00:50:09.218Z,22.87
2018-07-12T00:51:09.804Z,22.94
2018-07-12T00:52:10.395Z,22.91
2018-07-12T00:53:11.025Z,22.87
2018-07-12T00:54:11.612Z,22.96
2018-07-12T00:55:12.199Z,22.91
2018-07-12T00:56:12.784Z,22.87
2018-07-12T00:57:13.373Z,22.93
2018-07-12T00:58:14.010Z,22.88
2018-07-12T00:59:14.596Z,22.85
2018-07-12T01:00:15.182Z,22.91
2018-07-12T01:01:15.820Z,22.88
2018-07-12T01:02:16.406Z,22.85
2018-07-12T01:03:16.994Z,22.88
2018-07-12T01:04:17.581Z,22.90
2018-07-12T01:05:18.167Z,22.87
2018-07-12T01:06:18.754Z,22.88
2018-07-12T01:07:19.342Z,22.88
2018-07-12T01:08:19.931Z,22.90
2018-07-12T01:09:20.517Z,22.90
2018-07-12T01:10:21.104Z,22.81
2018-07-12T01:11:21.691Z,22.85
2018-07-12T01:12:22.328Z,22.85
2018-07-12T01:13:22.963Z,22.90
2018-07-12T01:14:23.550Z,22.87
2018-07-12T01:15:24.139Z,22.84
2018-07-12T01:16:24.726Z,22.88
2018-07-12T01:17:25.312Z,22.85
2018-07-12T01:18:25.949Z,22.85
2018-07-12T01:19:26.587Z,22.85
2018-07-12T01:20:27.224Z,22.81
2018-07-12T01:21:27.810Z,22.84
2018-07-12T01:22:28.397Z,22.76
2018-07-12T01:23:28.986Z,22.80
2018-07-12T01:24:29.572Z,22.81
2018-07-12T01:25:30.209Z,22.81
2018-07-12T01:26:30.796Z,22.83
2018-07-12T01:27:31.384Z,22.78
2018-07-12T01:28:32.019Z,22.81
2018-07-12T01:29:32.605Z,22.84
2018-07-12T01:30:33.192Z,22.83
2018-07-12T01:31:33.829Z,22.75
2018-07-12T01:32:34.416Z,22.81
2018-07-12T01:33:35.052Z,22.80
2018-07-12T01:34:35.635Z,22.76
2018-07-12T01:35:36.271Z,22.83
2018-07-12T01:36:36.856Z,22.85
2018-07-12T01:37:37.442Z,22.83
2018-07-12T01:38:38.030Z,22.72
2018-07-12T01:39:38.615Z,22.75
2018-07-12T01:40:39.202Z,22.72
2018-07-12T01:41:39.788Z,22.73
2018-07-12T01:42:40.373Z,22.87
2018-07-12T01:43:41.011Z,22.76
2018-07-12T01:44:41.598Z,22.75
2018-07-12T01:45:42.184Z,22.75
2018-07-12T01:46:42.771Z,22.78
2018-07-12T01:47:43.409Z,22.76
2018-07-12T01:48:43.999Z,22.75
2018-07-12T01:49:44.678Z,22.78
2018-07-12T01:50:45.268Z,22.78
2018-07-12T01:51:45.854Z,22.84
2018-07-12T01:52:46.439Z,22.78
2018-07-12T01:53:47.026Z,22.78
2018-07-12T01:54:47.611Z,22.78
2018-07-12T01:55:48.396Z,22.78
2018-07-12T01:56:48.983Z,22.75
2018-07-12T01:57:49.569Z,22.80
2018-07-12T01:58:50.157Z,22.76
2018-07-12T01:59:50.791Z,22.78
2018-07-12T02:00:51.376Z,22.80
2018-07-12T02:01:51.964Z,22.72
2018-07-12T02:02:52.598Z,22.76
2018-07-12T02:03:53.185Z,22.78
2018-07-12T02:04:53.819Z,22.78
2018-07-12T02:05:54.408Z,22.76
2018-07-12T02:06:54.994Z,22.76
2018-07-12T02:07:55.581Z,22.80
2018-07-12T02:08:56.214Z,22.76
2018-07-12T02:09:56.804Z,22.80
2018-07-12T02:10:57.392Z,22.70
2018-07-12T02:11:58.026Z,22.76
2018-07-12T02:12:58.610Z,22.72
2018-07-12T02:13:59.195Z,22.72
2018-07-12T02:14:59.781Z,22.72
2018-07-12T02:16:00.418Z,22.68
2018-07-12T02:17:01.037Z,22.75
2018-07-12T02:18:01.645Z,22.75
2018-07-12T02:19:02.231Z,22.72
2018-07-12T02:20:02.817Z,22.72
2018-07-12T02:21:03.404Z,22.75
2018-07-12T02:22:03.994Z,22.72
2018-07-12T02:23:04.575Z,22.73
2018-07-12T02:24:05.164Z,22.73
2018-07-12T02:25:05.748Z,22.75
2018-07-12T02:26:06.336Z,22.72
2018-07-12T02:27:06.974Z,22.73
2018-07-12T02:28:07.560Z,22.73
2018-07-12T02:29:08.147Z,22.70
2018-07-12T02:30:08.737Z,22.73
2018-07-12T02:31:09.370Z,22.70
2018-07-12T02:32:09.961Z,22.72
2018-07-12T02:33:10.541Z,22.75
2018-07-12T02:34:11.177Z,22.76
2018-07-12T02:35:11.821Z,22.72
2018-07-12T02:36:12.350Z,22.70
2018-07-12T02:37:12.936Z,22.73
2018-07-12T02:38:13.576Z,22.68
2018-07-12T02:39:14.158Z,22.73
2018-07-12T02:40:14.744Z,22.75
2018-07-12T02:41:15.331Z,22.72
2018-07-12T02:42:15.917Z,22.68
2018-07-12T02:43:16.504Z,22.73
2018-07-12T02:44:17.141Z,22.73
2018-07-12T02:45:17.728Z,22.72
2018-07-12T02:46:18.316Z,22.73
2018-07-12T02:47:18.902Z,22.68
2018-07-12T02:48:19.490Z,22.70
2018-07-12T02:49:20.076Z,22.72
2018-07-12T02:50:25.716Z,22.66
2018-07-12T02:51:26.300Z,22.69
2018-07-12T02:52:26.886Z,22.70
2018-07-12T02:53:27.525Z,22.68
2018-07-12T02:54:28.112Z,22.80
2018-07-12T02:55:28.748Z,22.72
2018-07-12T02:56:29.335Z,22.72
2018-07-12T02:57:29.922Z,22.69
2018-07-12T02:58:30.507Z,22.73
2018-07-12T02:59:31.095Z,22.68
2018-07-12T03:00:31.733Z,22.72
2018-07-12T03:01:32.321Z,22.70
2018-07-12T03:02:32.908Z,22.70
2018-07-12T03:03:33.495Z,22.69
2018-07-12T03:04:34.130Z,22.72
2018-07-12T03:05:34.717Z,22.68
2018-07-12T03:06:35.304Z,22.69
2018-07-12T03:07:35.890Z,22.69
2018-07-12T03:08:36.478Z,22.68
2018-07-12T03:09:37.063Z,22.70
2018-07-12T03:10:37.650Z,22.69
2018-07-12T03:11:38.237Z,22.66
2018-07-12T03:12:38.871Z,22.69
2018-07-12T03:13:39.457Z,22.66
2018-07-12T03:14:40.093Z,22.68
2018-07-12T03:15:40.681Z,22.66
2018-07-12T03:16:41.315Z,22.68
2018-07-12T03:17:41.901Z,22.63
2018-07-12T03:18:42.496Z,22.66
2018-07-12T03:19:43.169Z,22.66
2018-07-12T03:20:43.755Z,22.63
2018-07-12T03:21:44.342Z,22.66
2018-07-12T03:22:44.931Z,22.68
2018-07-12T03:23:45.519Z,22.68
2018-07-12T03:24:46.105Z,22.59
2018-07-12T03:25:46.692Z,22.66
2018-07-12T03:26:47.281Z,22.62
2018-07-12T03:27:47.867Z,22.62
2018-07-12T03:28:48.452Z,22.60
2018-07-12T03:29:49.090Z,22.59
2018-07-12T03:30:49.676Z,22.68
2018-07-12T03:31:50.263Z,22.63
2018-07-12T03:32:50.900Z,22.59
2018-07-12T03:33:51.539Z,22.66
2018-07-12T03:34:52.173Z,22.62
2018-07-12T03:35:52.804Z,22.65
2018-07-12T03:36:53.391Z,22.55
2018-07-12T03:37:54.126Z,22.59
2018-07-12T03:38:54.713Z,22.63
2018-07-12T03:39:55.359Z,22.57
2018-07-12T03:40:55.987Z,22.60
2018-07-12T03:41:56.571Z,22.63
2018-07-12T03:42:57.156Z,22.63
2018-07-12T03:43:57.743Z,22.59
2018-07-12T03:44:58.331Z,22.60
2018-07-12T03:45:58.916Z,22.65
2018-07-12T03:47:04.562Z,22.62
2018-07-12T03:48:05.149Z,22.55
2018-07-12T03:49:05.735Z,22.57
2018-07-12T03:50:06.372Z,22.62
2018-07-12T03:51:06.955Z,22.60
2018-07-12T03:52:07.590Z,22.63
2018-07-12T03:53:08.177Z,22.62
2018-07-12T03:54:08.815Z,22.59
2018-07-12T03:55:09.449Z,22.59
2018-07-12T03:56:10.036Z,22.57
2018-07-12T03:57:10.623Z,22.62
2018-07-12T03:58:11.265Z,22.55
2018-07-12T03:59:11.796Z,22.60
2018-07-12T04:00:12.381Z,22.55
2018-07-12T04:01:12.968Z,22.57
2018-07-12T04:02:13.558Z,22.66
2018-07-12T04:03:14.140Z,22.62
2018-07-12T04:04:14.729Z,22.55
2018-07-12T04:05:15.317Z,22.53
2018-07-12T04:06:15.949Z,22.59
2018-07-12T04:07:16.536Z,22.55
2018-07-12T04:08:17.219Z,22.63
2018-07-12T04:09:17.857Z,22.60
2018-07-12T04:10:18.441Z,22.60
2018-07-12T04:11:19.026Z,22.63
2018-07-12T04:12:19.613Z,22.62
2018-07-12T04:13:20.248Z,22.65
2018-07-12T04:14:20.834Z,22.54
2018-07-12T04:15:21.421Z,22.57
2018-07-12T04:16:22.009Z,22.62
2018-07-12T04:17:22.592Z,22.59
2018-07-12T04:18:23.179Z,22.62
2018-07-12T04:19:23.763Z,22.54
2018-07-12T04:20:24.349Z,22.60
2018-07-12T04:21:24.935Z,22.59
2018-07-12T04:22:25.524Z,22.59
2018-07-12T04:23:26.107Z,22.62
2018-07-12T04:24:26.693Z,22.59
2018-07-12T04:25:27.280Z,22.59
2018-07-12T04:26:27.918Z,22.63
2018-07-12T04:27:28.505Z,22.59
2018-07-12T04:28:29.093Z,22.59
2018-07-12T04:29:29.675Z,22.62
2018-07-12T04:30:30.310Z,22.59
2018-07-12T04:31:30.946Z,22.59
2018-07-12T04:32:31.683Z,22.66
2018-07-12T04:33:32.269Z,22.48
2018-07-12T04:34:32.868Z,22.62
2018-07-12T04:35:33.490Z,22.62
2018-07-12T04:36:34.076Z,22.63
2018-07-12T04:37:34.663Z,22.62
2018-07-12T04:38:35.249Z,22.59
2018-07-12T04:39:35.837Z,22.50
2018-07-12T04:40:36.432Z,22.59
2018-07-12T04:41:37.008Z,22.55
2018-07-12T04:42:37.594Z,22.53
2018-07-12T04:43:38.180Z,22.50
2018-07-12T04:44:38.765Z,22.57
2018-07-12T04:45:39.401Z,22.51
2018-07-12T04:46:39.988Z,22.55
2018-07-12T04:47:40.575Z,22.48
2018-07-12T04:48:41.159Z,22.51
2018-07-12T04:49:41.794Z,22.50
2018-07-12T04:50:42.380Z,22.48
2018-07-12T04:51:42.965Z,22.51
2018-07-12T04:52:43.601Z,22.59
2018-07-12T04:53:44.186Z,22.50
2018-07-12T04:54:44.776Z,22.54
2018-07-12T04:55:45.359Z,22.62
2018-07-12T04:56:45.993Z,22.48
2018-07-12T04:57:46.581Z,22.54
2018-07-12T04:58:47.216Z,22.50
2018-07-12T04:59:47.802Z,22.45
2018-07-12T05:00:48.435Z,22.60
2018-07-12T05:01:49.074Z,22.59
2018-07-12T05:02:49.662Z,22.53
2018-07-12T05:03:50.248Z,22.62
2018-07-12T05:04:50.834Z,22.53
2018-07-12T05:05:51.425Z,22.51
2018-07-12T05:06:52.012Z,22.51
2018-07-12T05:07:52.598Z,22.50
2018-07-12T05:08:53.235Z,22.55
2018-07-12T05:09:53.823Z,22.50
2018-07-12T05:10:54.413Z,22.51
2018-07-12T05:11:55.044Z,22.48
2018-07-12T05:12:55.629Z,22.50
2018-07-12T05:13:56.218Z,22.47
2018-07-12T05:14:56.803Z,22.53
2018-07-12T05:15:57.389Z,22.48
2018-07-12T05:16:57.977Z,22.47
2018-07-12T05:17:58.564Z,22.48
2018-07-12T05:18:59.147Z,22.50
2018-07-12T05:19:59.785Z,22.48
2018-07-12T05:21:00.372Z,22.55
2018-07-12T05:22:01.021Z,22.51
2018-07-12T05:23:01.542Z,22.51
2018-07-12T05:24:02.131Z,22.48
2018-07-12T05:25:02.766Z,22.48
2018-07-12T05:26:03.398Z,22.50
2018-07-12T05:27:04.033Z,22.48
2018-07-12T05:28:04.619Z,22.53
2018-07-12T05:29:05.206Z,22.45
2018-07-12T05:30:05.794Z,22.55
2018-07-12T05:31:06.476Z,22.50
2018-07-12T05:32:07.064Z,22.45
2018-07-12T05:33:07.650Z,22.54
2018-07-12T05:34:08.235Z,22.50
2018-07-12T05:35:08.924Z,22.50
2018-07-12T05:36:09.510Z,22.47
2018-07-12T05:37:10.142Z,22.51
2018-07-12T05:38:10.726Z,22.53
2018-07-12T05:39:11.379Z,22.59
2018-07-12T05:40:11.895Z,22.47
2018-07-12T05:41:12.483Z,22.54
2018-07-12T05:42:13.064Z,22.48
2018-07-12T05:43:13.696Z,22.47
2018-07-12T05:44:14.282Z,22.53
2018-07-12T05:45:14.913Z,22.45
2018-07-12T05:46:15.503Z,22.45
2018-07-12T05:47:16.088Z,22.47
2018-07-12T05:48:16.672Z,22.47
2018-07-12T05:49:17.261Z,22.50
2018-07-12T05:50:17.897Z,22.47
2018-07-12T05:51:18.483Z,22.51
2018-07-12T05:52:19.070Z,22.43
2018-07-12T05:53:19.652Z,22.47
2018-07-12T05:54:20.291Z,22.50
2018-07-12T05:55:20.877Z,22.54
2018-07-12T05:56:21.464Z,22.48
2018-07-12T05:57:22.126Z,22.44
2018-07-12T05:58:22.677Z,22.45
2018-07-12T05:59:23.267Z,22.55
2018-07-12T06:00:23.853Z,22.43
2018-07-12T06:01:24.441Z,22.41
2018-07-12T06:02:25.021Z,22.35
2018-07-12T06:03:25.603Z,22.38
2018-07-12T06:04:26.188Z,22.35
2018-07-12T06:05:26.810Z,22.39
2018-07-12T06:06:27.402Z,22.44
2018-07-12T06:07:27.987Z,22.41
2018-07-12T06:08:28.625Z,22.38
2018-07-12T06:09:29.261Z,22.36
2018-07-12T06:10:29.846Z,22.44
2018-07-12T06:11:30.432Z,22.39
2018-07-12T06:12:31.014Z,22.36
2018-07-12T06:13:31.601Z,22.43
2018-07-12T06:14:32.181Z,22.47
2018-07-12T06:15:32.772Z,22.41
2018-07-12T06:16:33.357Z,22.44
2018-07-12T06:17:33.944Z,22.54
2018-07-12T06:18:34.575Z,22.43
2018-07-12T06:19:35.164Z,22.51
2018-07-12T06:20:35.743Z,22.44
2018-07-12T06:21:36.333Z,22.47
2018-07-12T06:22:36.921Z,22.45
2018-07-12T06:23:37.504Z,22.48
2018-07-12T06:24:38.199Z,22.51
2018-07-12T06:25:38.728Z,22.53
2018-07-12T06:26:39.367Z,22.51
2018-07-12T06:27:39.997Z,22.45
2018-07-12T06:28:40.579Z,22.54
2018-07-12T06:29:41.267Z,22.50
2018-07-12T06:30:41.832Z,22.53
2018-07-12T06:31:42.465Z,22.51
2018-07-12T06:32:43.052Z,22.47
2018-07-12T06:33:43.734Z,22.44
2018-07-12T06:34:44.310Z,22.48
2018-07-12T06:35:44.900Z,22.50
2018-07-12T06:36:45.485Z,22.45
2018-07-12T06:37:46.071Z,22.51
2018-07-12T06:38:46.658Z,22.45
2018-07-12T06:39:47.243Z,22.50
2018-07-12T06:40:47.828Z,22.53
2018-07-12T06:41:48.414Z,22.44
2018-07-12T06:42:49.050Z,22.44
2018-07-12T06:43:49.634Z,22.45
2018-07-12T06:44:50.221Z,22.48
2018-07-12T06:45:50.800Z,22.53
2018-07-12T06:46:51.438Z,22.43
2018-07-12T06:47:52.020Z,22.43
2018-07-12T06:48:52.603Z,22.39
2018-07-12T06:49:53.190Z,22.41
2018-07-12T06:50:53.778Z,22.48
2018-07-12T06:51:54.413Z,22.43
2018-07-12T06:52:55.040Z,22.44
2018-07-12T06:53:55.616Z,22.41
2018-07-12T06:54:56.205Z,22.48
2018-07-12T06:55:56.793Z,22.39
2018-07-12T06:56:57.374Z,22.43
2018-07-12T06:57:57.960Z,22.39
2018-07-12T06:58:58.537Z,22.39
2018-07-12T06:59:59.128Z,22.47
2018-07-12T07:00:59.713Z,22.53
2018-07-12T07:02:00.297Z,22.48
2018-07-12T07:03:00.927Z,22.41
2018-07-12T07:04:01.563Z,22.48
2018-07-12T07:05:02.204Z,22.47
2018-07-12T07:06:02.819Z,22.45
2018-07-12T07:07:03.409Z,22.48
2018-07-12T07:08:03.989Z,22.48
2018-07-12T07:09:04.570Z,22.50
2018-07-12T07:10:05.208Z,22.44
2018-07-12T07:11:05.788Z,22.47
2018-07-12T07:12:06.378Z,22.47
2018-07-12T07:13:06.959Z,22.47
2018-07-12T07:14:07.546Z,22.50
2018-07-12T07:15:08.136Z,22.48
2018-07-12T07:16:08.768Z,22.45
2018-07-12T07:17:09.351Z,22.47
2018-07-12T07:18:09.929Z,22.48
2018-07-12T07:19:10.565Z,22.54
2018-07-12T07:20:11.210Z,22.47
2018-07-12T07:21:11.820Z,22.57
2018-07-12T07:22:12.371Z,22.48
2018-07-12T07:23:12.957Z,22.47
2018-07-12T07:24:13.535Z,22.39
2018-07-12T07:25:14.122Z,22.48
2018-07-12T07:26:14.720Z,22.48
2018-07-12T07:27:15.345Z,22.47
2018-07-12T07:28:15.933Z,22.53
2018-07-12T07:29:16.560Z,22.45
2018-07-12T07:30:17.150Z,22.48
2018-07-12T07:31:17.736Z,22.55
2018-07-12T07:32:18.324Z,22.47
2018-07-12T07:33:18.913Z,22.47
2018-07-12T07:34:19.491Z,22.48
2018-07-12T07:35:20.076Z,22.47
2018-07-12T07:36:20.663Z,22.51
2018-07-12T07:37:21.289Z,22.50
2018-07-12T07:38:21.877Z,22.47
2018-07-12T07:39:22.460Z,22.47
2018-07-12T07:40:23.100Z,22.55
2018-07-12T07:41:23.733Z,22.51
2018-07-12T07:42:24.317Z,22.48
2018-07-12T07:43:24.903Z,22.54
2018-07-12T07:44:25.513Z,22.50
2018-07-12T07:45:26.076Z,22.48
2018-07-12T07:46:26.660Z,22.63
2018-07-12T07:47:27.246Z,22.57
2018-07-12T07:48:27.882Z,22.65
2018-07-12T07:49:28.467Z,22.55
2018-07-12T07:50:29.052Z,22.48
2018-07-12T07:51:29.638Z,22.55
2018-07-12T07:52:30.271Z,22.62
2018-07-12T07:53:30.853Z,22.63
2018-07-12T07:54:31.430Z,22.60
2018-07-12T07:55:32.020Z,22.53
2018-07-12T07:56:32.608Z,22.57
2018-07-12T07:57:33.196Z,22.51
2018-07-12T07:58:33.772Z,22.50
2018-07-12T07:59:34.411Z,22.57
2018-07-12T08:00:34.998Z,22.62
2018-07-12T08:01:35.577Z,22.63
2018-07-12T08:02:36.201Z,22.66
2018-07-12T08:03:36.841Z,22.51
2018-07-12T08:04:37.421Z,22.60
2018-07-12T08:05:38.059Z,22.60
2018-07-12T08:06:38.650Z,22.65
2018-07-12T08:07:39.275Z,22.63
2018-07-12T08:08:39.864Z,22.59
2018-07-12T08:09:40.448Z,22.59
2018-07-12T08:10:41.031Z,22.62
2018-07-12T08:11:41.617Z,22.63
2018-07-12T08:12:42.199Z,22.63
2018-07-12T08:13:42.782Z,22.60
2018-07-12T08:14:43.375Z,22.63
2018-07-12T08:15:43.953Z,22.60
2018-07-12T08:16:44.543Z,22.62
2018-07-12T08:17:45.170Z,22.63
2018-07-12T08:18:45.755Z,22.65
2018-07-12T08:19:46.342Z,22.65
2018-07-12T08:20:46.932Z,22.65
2018-07-12T08:21:47.519Z,22.63
2018-07-12T08:22:48.102Z,22.65
2018-07-12T08:23:48.696Z,22.63
2018-07-12T08:24:49.336Z,22.63
2018-07-12T08:25:49.976Z,22.57
2018-07-12T08:26:50.566Z,22.57
2018-07-12T08:27:51.159Z,22.63
2018-07-12T08:28:51.785Z,22.65
2018-07-12T08:29:52.347Z,22.60
2018-07-12T08:30:52.919Z,22.60
2018-07-12T08:31:53.507Z,22.62
2018-07-12T08:32:54.151Z,22.62
2018-07-12T08:33:54.735Z,22.54
2018-07-12T08:34:55.336Z,22.65
2018-07-12T08:35:55.919Z,22.65
2018-07-12T08:36:56.529Z,22.60
2018-07-12T08:37:57.097Z,22.62
2018-07-12T08:38:57.687Z,22.65
2018-07-12T08:39:58.274Z,22.63
2018-07-12T08:40:58.917Z,22.68
2018-07-12T08:41:59.505Z,22.70
2018-07-12T08:43:00.140Z,22.73
2018-07-12T08:44:00.731Z,22.75
2018-07-12T08:45:01.324Z,22.81
2018-07-12T08:46:01.910Z,22.72
2018-07-12T08:47:02.499Z,22.72
2018-07-12T08:48:03.084Z,22.76
2018-07-12T08:49:03.678Z,22.75
2018-07-12T08:50:04.271Z,22.72
2018-07-12T08:51:04.853Z,22.76
2018-07-12T08:52:05.495Z,22.75
2018-07-12T08:53:06.135Z,22.88
2018-07-12T08:54:06.675Z,22.88
2018-07-12T08:55:07.314Z,22.96
2018-07-12T08:56:07.904Z,23.00
2018-07-12T08:57:08.545Z,22.99
2018-07-12T08:58:09.189Z,23.13
2018-07-12T08:59:09.845Z,23.17
2018-07-12T09:00:10.437Z,23.18
2018-07-12T09:01:11.027Z,23.25
2018-07-12T09:02:11.616Z,23.21
2018-07-12T09:03:12.257Z,23.28
2018-07-12T09:04:12.844Z,23.31
2018-07-12T09:05:13.438Z,23.40
2018-07-12T09:06:14.025Z,23.36
2018-07-12T09:07:14.671Z,23.44
2018-07-12T09:08:15.257Z,23.44
2018-07-12T09:09:15.848Z,23.55
2018-07-12T09:10:16.439Z,23.58
2018-07-12T09:11:17.031Z,23.62
2018-07-12T09:12:17.617Z,23.66
2018-07-12T09:13:18.215Z,23.73
2018-07-12T09:14:18.801Z,23.74
2018-07-12T09:15:19.448Z,23.77
2018-07-12T09:16:20.032Z,23.77
2018-07-12T09:17:20.675Z,23.77
2018-07-12T09:18:21.265Z,23.88
2018-07-12T09:19:21.853Z,23.88
2018-07-12T09:20:22.445Z,23.81
2018-07-12T09:21:23.037Z,23.86
2018-07-12T09:22:23.725Z,23.88
2018-07-12T09:23:24.311Z,23.92
2018-07-12T09:24:24.908Z,23.93
2018-07-12T09:25:25.663Z,24.01
2018-07-12T09:26:26.194Z,23.91
2018-07-12T09:27:26.776Z,23.99
2018-07-12T09:28:27.372Z,23.95
2018-07-12T09:29:27.962Z,24.05
2018-07-12T09:30:28.556Z,24.03
2018-07-12T09:31:29.144Z,24.06
2018-07-12T09:32:29.779Z,24.14
2018-07-12T09:33:30.366Z,24.13
2018-07-12T09:34:31.064Z,24.21
2018-07-12T09:35:31.650Z,24.29
2018-07-12T09:36:32.237Z,24.32
2018-07-12T09:37:32.833Z,24.33
2018-07-12T09:38:33.427Z,24.38
2018-07-12T09:39:34.017Z,24.48
2018-07-12T09:40:34.662Z,24.35
2018-07-12T09:41:35.251Z,24.43
2018-07-12T09:42:35.898Z,24.51
2018-07-12T09:43:36.581Z,24.51
2018-07-12T09:44:37.130Z,24.47
2018-07-12T09:45:37.775Z,24.58
2018-07-12T09:46:38.365Z,24.54
2018-07-12T09:47:39.013Z,24.61
2018-07-12T09:48:39.594Z,24.63
2018-07-12T09:49:40.181Z,24.58
2018-07-12T09:50:40.773Z,24.57
2018-07-12T09:51:41.363Z,24.70
2018-07-12T09:52:41.955Z,24.61
2018-07-12T09:53:42.546Z,24.69
2018-07-12T09:54:43.134Z,24.78
2018-07-12T09:55:43.997Z,24.77
2018-07-12T09:56:44.533Z,24.80
2018-07-12T09:57:45.067Z,24.80
2018-07-12T09:58:45.658Z,24.86
2018-07-12T09:59:46.302Z,24.91
2018-07-12T10:00:46.892Z,24.98
2018-07-12T10:01:47.480Z,24.96
2018-07-12T10:02:48.075Z,24.98
2018-07-12T10:03:48.671Z,25.04
2018-07-12T10:04:49.257Z,24.99
2018-07-12T10:05:49.905Z,25.08
2018-07-12T10:06:50.491Z,25.10
2018-07-12T10:07:51.087Z,25.10
2018-07-12T10:08:51.682Z,25.14
2018-07-12T10:09:52.275Z,25.22
2018-07-12T10:10:52.867Z,25.17
2018-07-12T10:11:53.463Z,25.22
2018-07-12T10:12:54.056Z,25.25
2018-07-12T10:13:54.650Z,25.25
2018-07-12T10:14:55.244Z,25.21
2018-07-12T10:15:55.837Z,25.22
2018-07-12T10:16:56.470Z,25.23
2018-07-12T10:17:57.063Z,25.21
2018-07-12T10:18:57.711Z,25.23
2018-07-12T10:19:58.400Z,25.21
2018-07-12T10:20:58.991Z,25.22
2018-07-12T10:21:59.582Z,25.22
2018-07-12T10:23:00.175Z,25.35
2018-07-12T10:24:00.764Z,25.36
2018-07-12T10:25:01.363Z,25.33
2018-07-12T10:26:01.955Z,25.40
2018-07-12T10:27:02.550Z,25.46
2018-07-12T10:28:03.140Z,25.40
2018-07-12T10:29:03.778Z,25.31
2018-07-12T10:30:04.332Z,25.36
2018-07-12T10:31:04.968Z,25.38
2018-07-12T10:32:05.560Z,25.48
2018-07-12T10:33:06.155Z,25.35
2018-07-12T10:34:06.750Z,25.33
2018-07-12T10:35:07.391Z,25.40
2018-07-12T10:36:08.041Z,25.38
2018-07-12T10:37:08.629Z,25.40
2018-07-12T10:38:09.225Z,25.31
2018-07-12T10:39:09.813Z,25.40
2018-07-12T10:40:10.463Z,25.35
2018-07-12T10:41:11.100Z,25.33
2018-07-12T10:42:11.738Z,25.38
2018-07-12T10:43:12.375Z,25.48
2018-07-12T10:44:12.963Z,25.50
2018-07-12T10:45:13.555Z,25.41
2018-07-12T10:46:14.150Z,25.46
2018-07-12T10:47:14.744Z,25.51
2018-07-12T10:48:15.331Z,25.47
2018-07-12T10:49:15.925Z,25.47
2018-07-12T10:50:16.520Z,25.48
2018-07-12T10:51:17.215Z,25.54
2018-07-12T10:52:17.804Z,25.51
2018-07-12T10:53:18.398Z,25.50
2018-07-12T10:54:18.987Z,25.60
2018-07-12T10:55:19.585Z,25.63
2018-07-12T10:56:20.226Z,25.53
2018-07-12T10:57:20.824Z,25.68
2018-07-12T10:58:21.413Z,25.66
2018-07-12T10:59:22.005Z,25.63
2018-07-12T11:00:22.599Z,25.72
2018-07-12T11:01:23.195Z,25.66
2018-07-12T11:02:23.837Z,25.70
2018-07-12T11:03:24.430Z,25.72
2018-07-12T11:04:25.110Z,25.73
2018-07-12T11:05:25.670Z,25.69
2018-07-12T11:06:26.264Z,25.73
2018-07-12T11:07:26.859Z,25.72
2018-07-12T11:08:27.456Z,25.84
2018-07-12T11:09:28.048Z,25.81
2018-07-12T11:10:28.678Z,25.77
2018-07-12T11:11:29.238Z,25.85
2018-07-12T11:12:29.834Z,25.84
2018-07-12T11:13:30.477Z,25.80
2018-07-12T11:14:31.116Z,25.73
2018-07-12T11:15:31.713Z,25.87
2018-07-12T11:16:32.352Z,25.88
2018-07-12T11:17:32.946Z,25.84
2018-07-12T11:18:33.532Z,25.84
2018-07-12T11:19:34.132Z,25.80
2018-07-12T11:20:34.725Z,25.90
2018-07-12T11:21:35.320Z,25.98
2018-07-12T11:22:35.964Z,25.88
2018-07-12T11:23:36.597Z,25.91
2018-07-12T11:24:37.194Z,25.99
2018-07-12T11:25:37.783Z,26.00
2018-07-12T11:26:38.431Z,26.02
2018-07-12T11:27:39.026Z,25.99
2018-07-12T11:28:39.618Z,25.83
2018-07-12T11:29:40.217Z,25.91
2018-07-12T11:30:40.854Z,25.88
2018-07-12T11:31:41.446Z,25.87
2018-07-12T11:32:42.143Z,25.85
2018-07-12T11:33:42.742Z,25.98
2018-07-12T11:34:43.325Z,25.88
2018-07-12T11:35:43.923Z,25.93
2018-07-12T11:36:44.510Z,25.91
2018-07-12T11:37:45.208Z,25.88
2018-07-12T11:38:45.802Z,25.88
2018-07-12T11:39:46.449Z,26.00
2018-07-12T11:40:47.042Z,25.99
2018-07-12T11:41:47.628Z,25.91
2018-07-12T11:42:48.221Z,25.93
2018-07-12T11:43:48.815Z,25.98
2018-07-12T11:44:49.460Z,25.88
2018-07-12T11:45:50.002Z,25.96
2018-07-12T11:46:50.598Z,25.88
2018-07-12T11:47:51.186Z,25.81
2018-07-12T11:48:51.831Z,25.88
2018-07-12T11:49:52.421Z,25.81
2018-07-12T11:50:53.048Z,25.84
2018-07-12T11:51:53.612Z,25.85
2018-07-12T11:52:54.227Z,25.84
2018-07-12T11:53:54.801Z,25.80
2018-07-12T11:54:55.392Z,25.90
2018-07-12T11:55:56.032Z,25.85
2018-07-12T11:56:56.621Z,25.81
2018-07-12T11:57:57.211Z,25.84
2018-07-12T11:58:57.818Z,25.88
2018-07-12T11:59:58.662Z,25.98
2018-07-12T12:00:59.255Z,25.98
2018-07-12T12:01:59.892Z,26.03
2018-07-12T12:03:00.441Z,26.07
2018-07-12T12:04:01.038Z,26.18
2018-07-12T12:05:01.635Z,26.21
2018-07-12T12:06:02.225Z,26.28
2018-07-12T12:07:02.901Z,26.28
2018-07-12T12:08:03.472Z,26.36
2018-07-12T12:09:04.067Z,26.34
2018-07-12T12:10:04.659Z,26.41
2018-07-12T12:11:05.296Z,26.40
2018-07-12T12:12:05.969Z,26.53
2018-07-12T12:13:06.532Z,26.62
2018-07-12T12:14:07.131Z,26.56
2018-07-12T12:15:07.731Z,26.62
2018-07-12T12:16:08.422Z,26.75
2018-07-12T12:17:09.019Z,26.78
2018-07-12T12:18:09.611Z,26.71
2018-07-12T12:19:10.204Z,26.73
2018-07-12T12:20:10.798Z,26.75
2018-07-12T12:21:11.400Z,26.71
2018-07-12T12:22:11.986Z,26.78
2018-07-12T12:23:12.584Z,26.81
2018-07-12T12:24:13.178Z,26.84
2018-07-12T12:25:13.769Z,26.77
2018-07-12T12:26:14.375Z,26.68
2018-07-12T12:27:14.961Z,26.78
2018-07-12T12:28:15.607Z,26.80
2018-07-12T12:29:16.244Z,26.65
2018-07-12T12:30:16.841Z,26.83
2018-07-12T12:31:17.441Z,26.83
2018-07-12T12:32:18.094Z,26.84
2018-07-12T12:33:18.740Z,26.92
2018-07-12T12:34:19.339Z,26.93
2018-07-12T12:35:19.942Z,26.99
2018-07-12T12:36:20.531Z,27.03
2018-07-12T12:37:21.124Z,27.10
2018-07-12T12:38:21.722Z,27.14
2018-07-12T12:39:22.318Z,27.12
2018-07-12T12:40:22.912Z,27.22
2018-07-12T12:41:23.553Z,27.20
2018-07-12T12:42:24.145Z,27.07
2018-07-12T12:43:24.748Z,27.11
2018-07-12T12:44:25.407Z,27.21
2018-07-12T12:45:26.033Z,27.25
2018-07-12T12:46:26.680Z,27.32
2018-07-12T12:47:27.273Z,27.27
2018-07-12T12:48:27.874Z,27.32
2018-07-12T12:49:28.472Z,27.35
2018-07-12T12:50:29.121Z,27.47
2018-07-12T12:51:29.729Z,27.52
2018-07-12T12:52:30.365Z,27.63
2018-07-12T12:53:30.964Z,27.64
2018-07-12T12:54:31.618Z,27.63
2018-07-12T12:55:32.260Z,27.55
2018-07-12T12:56:32.859Z,27.59
2018-07-12T12:57:33.466Z,27.58
2018-07-12T12:58:34.050Z,27.64
2018-07-12T12:59:34.647Z,27.70
2018-07-12T13:00:35.249Z,27.77